sensor_id;sensor_type;location;lat;lon;timestamp;P1;durP1;ratioP1;P2;durP2;ratioP2
39750;SDS011;37579;51.074;17.004;2023-02-15T00:01:19;2.35;;;1.90;;
39750;SDS011;37579;51.074;17.004;2023-02-15T00:03:47;1.90;;;1.65;;
39750;SDS011;37579;51.074;17.004;2023-02-15T00:06:14;1.90;;;1.42;;
39750;SDS011;37579;51.074;17.004;2023-02-15T00:08:40;2.63;;;1.48;;
39750;SDS011;37579;51.074;17.004;2023-02-15T00:11:10;2.58;;;1.50;;
39750;SDS011;37579;51.074;17.004;2023-02-15T00:13:38;2.15;;;1.65;;
39750;SDS011;37579;51.074;17.004;2023-02-15T00:16:08;2.30;;;1.60;;
39750;SDS011;37579;51.074;17.004;2023-02-15T00:18:36;2.60;;;1.65;;
39750;SDS011;37579;51.074;17.004;2023-02-15T00:21:07;2.35;;;1.55;;
39750;SDS011;37579;51.074;17.004;2023-02-15T00:23:34;2.55;;;1.50;;
39750;SDS011;37579;51.074;17.004;2023-02-15T00:31:06;2.78;;;1.67;;
39750;SDS011;37579;51.074;17.004;2023-02-15T00:33:37;2.40;;;1.60;;
39750;SDS011;37579;51.074;17.004;2023-02-15T00:36:04;2.08;;;1.60;;
39750;SDS011;37579;51.074;17.004;2023-02-15T00:38:32;2.42;;;1.40;;
39750;SDS011;37579;51.074;17.004;2023-02-15T00:40:59;2.85;;;1.48;;
39750;SDS011;37579;51.074;17.004;2023-02-15T00:43:27;1.88;;;1.52;;
39750;SDS011;37579;51.074;17.004;2023-02-15T00:45:53;2.85;;;1.52;;
39750;SDS011;37579;51.074;17.004;2023-02-15T00:48:19;1.65;;;1.40;;
39750;SDS011;37579;51.074;17.004;2023-02-15T00:50:47;2.78;;;1.70;;
39750;SDS011;37579;51.074;17.004;2023-02-15T00:53:15;1.90;;;1.30;;
39750;SDS011;37579;51.074;17.004;2023-02-15T00:55:41;1.80;;;1.50;;
39750;SDS011;37579;51.074;17.004;2023-02-15T00:58:07;2.38;;;1.67;;
39750;SDS011;37579;51.074;17.004;2023-02-15T01:00:34;2.00;;;1.40;;
39750;SDS011;37579;51.074;17.004;2023-02-15T01:03:00;1.90;;;1.42;;
39750;SDS011;37579;51.074;17.004;2023-02-15T01:05:26;1.90;;;1.60;;
39750;SDS011;37579;51.074;17.004;2023-02-15T01:07:52;2.15;;;1.50;;
39750;SDS011;37579;51.074;17.004;2023-02-15T01:10:18;2.00;;;1.60;;
39750;SDS011;37579;51.074;17.004;2023-02-15T01:12:44;1.35;;;1.25;;
39750;SDS011;37579;51.074;17.004;2023-02-15T01:15:10;1.55;;;1.27;;
39750;SDS011;37579;51.074;17.004;2023-02-15T01:17:36;1.67;;;1.58;;
39750;SDS011;37579;51.074;17.004;2023-02-15T01:20:02;2.20;;;1.77;;
39750;SDS011;37579;51.074;17.004;2023-02-15T01:22:29;1.98;;;1.30;;
39750;SDS011;37579;51.074;17.004;2023-02-15T01:24:55;2.00;;;1.63;;
39750;SDS011;37579;51.074;17.004;2023-02-15T01:27:20;2.85;;;1.50;;
39750;SDS011;37579;51.074;17.004;2023-02-15T01:29:46;1.80;;;1.40;;
39750;SDS011;37579;51.074;17.004;2023-02-15T01:32:13;2.42;;;1.70;;
39750;SDS011;37579;51.074;17.004;2023-02-15T01:34:42;1.80;;;1.45;;
39750;SDS011;37579;51.074;17.004;2023-02-15T01:37:07;1.73;;;1.63;;
39750;SDS011;37579;51.074;17.004;2023-02-15T01:39:33;2.05;;;1.73;;
39750;SDS011;37579;51.074;17.004;2023-02-15T01:41:59;2.20;;;1.38;;
39750;SDS011;37579;51.074;17.004;2023-02-15T01:47:14;2.08;;;1.70;;
39750;SDS011;37579;51.074;17.004;2023-02-15T01:49:45;2.13;;;1.53;;
39750;SDS011;37579;51.074;17.004;2023-02-15T01:52:12;1.65;;;1.35;;
39750;SDS011;37579;51.074;17.004;2023-02-15T01:54:42;1.85;;;1.38;;
39750;SDS011;37579;51.074;17.004;2023-02-15T01:57:12;1.80;;;1.35;;
39750;SDS011;37579;51.074;17.004;2023-02-15T01:59:43;1.58;;;1.40;;
39750;SDS011;37579;51.074;17.004;2023-02-15T02:02:14;1.95;;;1.50;;
39750;SDS011;37579;51.074;17.004;2023-02-15T02:04:45;2.33;;;1.75;;
39750;SDS011;37579;51.074;17.004;2023-02-15T02:07:18;2.53;;;1.55;;
39750;SDS011;37579;51.074;17.004;2023-02-15T02:09:46;2.55;;;1.73;;
39750;SDS011;37579;51.074;17.004;2023-02-15T02:12:13;2.53;;;1.80;;
39750;SDS011;37579;51.074;17.004;2023-02-15T02:14:40;2.03;;;1.63;;
39750;SDS011;37579;51.074;17.004;2023-02-15T02:17:12;2.08;;;1.85;;
39750;SDS011;37579;51.074;17.004;2023-02-15T02:20:14;2.60;;;1.73;;
39750;SDS011;37579;51.074;17.004;2023-02-15T02:35:58;2.10;;;1.60;;
39750;SDS011;37579;51.074;17.004;2023-02-15T02:39:05;3.65;;;2.55;;
39750;SDS011;37579;51.074;17.004;2023-02-15T02:44:47;3.00;;;2.00;;
39750;SDS011;37579;51.074;17.004;2023-02-15T02:49:59;2.70;;;1.90;;
39750;SDS011;37579;51.074;17.004;2023-02-15T02:52:43;2.47;;;1.90;;
39750;SDS011;37579;51.074;17.004;2023-02-15T02:55:30;2.65;;;2.00;;
39750;SDS011;37579;51.074;17.004;2023-02-15T02:58:17;2.63;;;1.98;;
39750;SDS011;37579;51.074;17.004;2023-02-15T03:00:49;2.50;;;2.17;;
39750;SDS011;37579;51.074;17.004;2023-02-15T03:03:29;3.22;;;2.38;;
39750;SDS011;37579;51.074;17.004;2023-02-15T03:06:00;2.47;;;2.03;;
39750;SDS011;37579;51.074;17.004;2023-02-15T03:08:38;2.50;;;1.98;;
39750;SDS011;37579;51.074;17.004;2023-02-15T03:11:08;2.33;;;2.05;;
39750;SDS011;37579;51.074;17.004;2023-02-15T03:13:36;2.83;;;2.20;;
39750;SDS011;37579;51.074;17.004;2023-02-15T03:16:04;2.67;;;2.10;;
39750;SDS011;37579;51.074;17.004;2023-02-15T03:18:51;3.10;;;2.00;;
39750;SDS011;37579;51.074;17.004;2023-02-15T03:21:25;2.40;;;1.92;;
39750;SDS011;37579;51.074;17.004;2023-02-15T03:24:02;3.08;;;2.42;;
39750;SDS011;37579;51.074;17.004;2023-02-15T03:26:35;2.42;;;2.15;;
39750;SDS011;37579;51.074;17.004;2023-02-15T03:29:03;2.28;;;2.08;;
39750;SDS011;37579;51.074;17.004;2023-02-15T03:31:33;3.42;;;2.05;;
39750;SDS011;37579;51.074;17.004;2023-02-15T03:34:04;2.90;;;2.15;;
39750;SDS011;37579;51.074;17.004;2023-02-15T03:36:50;3.30;;;2.47;;
39750;SDS011;37579;51.074;17.004;2023-02-15T03:42:46;3.63;;;2.38;;
39750;SDS011;37579;51.074;17.004;2023-02-15T03:45:17;3.03;;;2.30;;
39750;SDS011;37579;51.074;17.004;2023-02-15T03:47:51;2.63;;;2.25;;
39750;SDS011;37579;51.074;17.004;2023-02-15T03:50:31;3.28;;;2.60;;
39750;SDS011;37579;51.074;17.004;2023-02-15T03:53:19;2.97;;;2.13;;
39750;SDS011;37579;51.074;17.004;2023-02-15T03:55:47;2.85;;;2.30;;
39750;SDS011;37579;51.074;17.004;2023-02-15T03:58:14;3.30;;;2.55;;
39750;SDS011;37579;51.074;17.004;2023-02-15T04:00:59;3.15;;;2.60;;
39750;SDS011;37579;51.074;17.004;2023-02-15T04:03:49;3.20;;;2.17;;
39750;SDS011;37579;51.074;17.004;2023-02-15T04:06:22;3.10;;;2.40;;
39750;SDS011;37579;51.074;17.004;2023-02-15T04:08:48;3.13;;;2.05;;
39750;SDS011;37579;51.074;17.004;2023-02-15T04:11:32;3.10;;;2.40;;
39750;SDS011;37579;51.074;17.004;2023-02-15T04:13:58;2.92;;;2.42;;
39750;SDS011;37579;51.074;17.004;2023-02-15T04:16:24;3.70;;;2.67;;
39750;SDS011;37579;51.074;17.004;2023-02-15T04:18:50;3.13;;;2.42;;
39750;SDS011;37579;51.074;17.004;2023-02-15T04:21:34;3.08;;;2.47;;
39750;SDS011;37579;51.074;17.004;2023-02-15T04:24:19;3.22;;;2.35;;
39750;SDS011;37579;51.074;17.004;2023-02-15T04:27:04;3.38;;;2.35;;
39750;SDS011;37579;51.074;17.004;2023-02-15T04:29:31;3.20;;;2.40;;
39750;SDS011;37579;51.074;17.004;2023-02-15T04:31:57;2.97;;;2.42;;
39750;SDS011;37579;51.074;17.004;2023-02-15T04:34:26;3.17;;;2.53;;
39750;SDS011;37579;51.074;17.004;2023-02-15T04:36:52;3.53;;;2.53;;
39750;SDS011;37579;51.074;17.004;2023-02-15T04:39:18;3.08;;;2.30;;
39750;SDS011;37579;51.074;17.004;2023-02-15T04:41:44;3.08;;;2.30;;
39750;SDS011;37579;51.074;17.004;2023-02-15T04:44:11;3.72;;;2.38;;
39750;SDS011;37579;51.074;17.004;2023-02-15T04:46:37;3.50;;;2.47;;
39750;SDS011;37579;51.074;17.004;2023-02-15T04:49:03;3.17;;;2.22;;
39750;SDS011;37579;51.074;17.004;2023-02-15T04:51:29;3.10;;;2.40;;
39750;SDS011;37579;51.074;17.004;2023-02-15T04:53:55;2.78;;;2.22;;
39750;SDS011;37579;51.074;17.004;2023-02-15T04:56:21;2.97;;;2.10;;
39750;SDS011;37579;51.074;17.004;2023-02-15T04:58:47;2.80;;;2.10;;
39750;SDS011;37579;51.074;17.004;2023-02-15T05:01:14;4.05;;;2.55;;
39750;SDS011;37579;51.074;17.004;2023-02-15T05:03:39;3.63;;;2.53;;
39750;SDS011;37579;51.074;17.004;2023-02-15T05:06:05;3.13;;;2.38;;
39750;SDS011;37579;51.074;17.004;2023-02-15T05:08:31;3.75;;;2.35;;
39750;SDS011;37579;51.074;17.004;2023-02-15T05:10:57;2.92;;;2.10;;
39750;SDS011;37579;51.074;17.004;2023-02-15T05:13:23;4.45;;;2.95;;
39750;SDS011;37579;51.074;17.004;2023-02-15T05:15:50;2.95;;;2.22;;
39750;SDS011;37579;51.074;17.004;2023-02-15T05:18:18;3.70;;;2.40;;
39750;SDS011;37579;51.074;17.004;2023-02-15T05:20:45;3.92;;;2.70;;
39750;SDS011;37579;51.074;17.004;2023-02-15T05:23:12;3.42;;;2.42;;
39750;SDS011;37579;51.074;17.004;2023-02-15T05:25:38;2.53;;;2.22;;
39750;SDS011;37579;51.074;17.004;2023-02-15T05:28:23;2.45;;;1.90;;
39750;SDS011;37579;51.074;17.004;2023-02-15T05:31:00;3.17;;;2.20;;
39750;SDS011;37579;51.074;17.004;2023-02-15T05:33:36;2.70;;;1.92;;
39750;SDS011;37579;51.074;17.004;2023-02-15T05:36:02;2.38;;;1.90;;
39750;SDS011;37579;51.074;17.004;2023-02-15T05:38:28;2.67;;;2.38;;
39750;SDS011;37579;51.074;17.004;2023-02-15T05:40:54;3.58;;;2.33;;
39750;SDS011;37579;51.074;17.004;2023-02-15T05:43:20;4.82;;;2.40;;
39750;SDS011;37579;51.074;17.004;2023-02-15T05:45:48;6.10;;;3.42;;
39750;SDS011;37579;51.074;17.004;2023-02-15T05:48:15;6.35;;;3.42;;
39750;SDS011;37579;51.074;17.004;2023-02-15T05:50:41;8.25;;;3.40;;
39750;SDS011;37579;51.074;17.004;2023-02-15T05:53:07;7.68;;;3.65;;
39750;SDS011;37579;51.074;17.004;2023-02-15T05:55:33;8.98;;;3.50;;
39750;SDS011;37579;51.074;17.004;2023-02-15T05:57:59;7.30;;;3.40;;
39750;SDS011;37579;51.074;17.004;2023-02-15T06:00:24;5.80;;;3.00;;
39750;SDS011;37579;51.074;17.004;2023-02-15T06:02:50;7.90;;;3.40;;
39750;SDS011;37579;51.074;17.004;2023-02-15T06:05:16;10.55;;;4.35;;
39750;SDS011;37579;51.074;17.004;2023-02-15T06:07:42;10.50;;;3.95;;
39750;SDS011;37579;51.074;17.004;2023-02-15T06:10:09;7.32;;;3.67;;
39750;SDS011;37579;51.074;17.004;2023-02-15T06:12:35;10.27;;;3.85;;
39750;SDS011;37579;51.074;17.004;2023-02-15T06:15:01;9.30;;;4.10;;
39750;SDS011;37579;51.074;17.004;2023-02-15T06:17:27;6.68;;;3.65;;
39750;SDS011;37579;51.074;17.004;2023-02-15T06:19:53;6.80;;;3.78;;
39750;SDS011;37579;51.074;17.004;2023-02-15T06:22:19;6.35;;;3.55;;
39750;SDS011;37579;51.074;17.004;2023-02-15T06:24:45;8.70;;;3.50;;
39750;SDS011;37579;51.074;17.004;2023-02-15T06:27:11;7.55;;;3.25;;
39750;SDS011;37579;51.074;17.004;2023-02-15T06:29:37;6.03;;;3.40;;
39750;SDS011;37579;51.074;17.004;2023-02-15T06:32:03;6.45;;;3.33;;
39750;SDS011;37579;51.074;17.004;2023-02-15T06:34:29;5.05;;;2.85;;
39750;SDS011;37579;51.074;17.004;2023-02-15T06:36:55;5.55;;;3.03;;
39750;SDS011;37579;51.074;17.004;2023-02-15T06:39:21;6.53;;;3.17;;
39750;SDS011;37579;51.074;17.004;2023-02-15T06:41:47;7.25;;;3.78;;
39750;SDS011;37579;51.074;17.004;2023-02-15T06:44:13;6.38;;;3.05;;
39750;SDS011;37579;51.074;17.004;2023-02-15T06:46:39;7.22;;;3.33;;
39750;SDS011;37579;51.074;17.004;2023-02-15T06:49:05;6.53;;;3.50;;
39750;SDS011;37579;51.074;17.004;2023-02-15T06:51:31;7.13;;;3.45;;
39750;SDS011;37579;51.074;17.004;2023-02-15T06:53:56;5.88;;;3.35;;
39750;SDS011;37579;51.074;17.004;2023-02-15T06:56:22;6.07;;;3.30;;
39750;SDS011;37579;51.074;17.004;2023-02-15T06:58:48;7.25;;;3.30;;
39750;SDS011;37579;51.074;17.004;2023-02-15T07:01:18;7.93;;;3.25;;
39750;SDS011;37579;51.074;17.004;2023-02-15T07:03:44;6.18;;;3.22;;
39750;SDS011;37579;51.074;17.004;2023-02-15T07:06:10;6.07;;;2.92;;
39750;SDS011;37579;51.074;17.004;2023-02-15T07:08:36;5.47;;;3.13;;
39750;SDS011;37579;51.074;17.004;2023-02-15T07:11:03;6.47;;;3.55;;
39750;SDS011;37579;51.074;17.004;2023-02-15T07:13:49;5.07;;;2.83;;
39750;SDS011;37579;51.074;17.004;2023-02-15T07:16:17;6.72;;;3.15;;
39750;SDS011;37579;51.074;17.004;2023-02-15T07:18:44;3.97;;;3.00;;
39750;SDS011;37579;51.074;17.004;2023-02-15T07:21:11;5.57;;;3.17;;
39750;SDS011;37579;51.074;17.004;2023-02-15T07:23:37;6.53;;;3.70;;
39750;SDS011;37579;51.074;17.004;2023-02-15T07:26:04;4.78;;;2.70;;
39750;SDS011;37579;51.074;17.004;2023-02-15T07:28:30;6.30;;;3.17;;
39750;SDS011;37579;51.074;17.004;2023-02-15T07:30:57;5.25;;;2.83;;
39750;SDS011;37579;51.074;17.004;2023-02-15T07:33:23;5.55;;;3.03;;
39750;SDS011;37579;51.074;17.004;2023-02-15T07:35:49;6.15;;;3.60;;
39750;SDS011;37579;51.074;17.004;2023-02-15T07:38:16;4.63;;;2.88;;
39750;SDS011;37579;51.074;17.004;2023-02-15T07:40:43;4.80;;;2.85;;
39750;SDS011;37579;51.074;17.004;2023-02-15T07:43:10;4.53;;;2.83;;
39750;SDS011;37579;51.074;17.004;2023-02-15T07:45:36;5.72;;;3.25;;
39750;SDS011;37579;51.074;17.004;2023-02-15T07:48:02;6.50;;;2.75;;
39750;SDS011;37579;51.074;17.004;2023-02-15T07:50:29;6.53;;;3.70;;
39750;SDS011;37579;51.074;17.004;2023-02-15T07:52:55;5.90;;;3.15;;
39750;SDS011;37579;51.074;17.004;2023-02-15T07:55:20;5.15;;;2.90;;
39750;SDS011;37579;51.074;17.004;2023-02-15T07:57:47;5.63;;;3.03;;
39750;SDS011;37579;51.074;17.004;2023-02-15T08:00:15;6.47;;;4.15;;
39750;SDS011;37579;51.074;17.004;2023-02-15T08:02:47;6.03;;;3.08;;
39750;SDS011;37579;51.074;17.004;2023-02-15T08:05:14;4.43;;;2.97;;
39750;SDS011;37579;51.074;17.004;2023-02-15T08:07:42;7.53;;;3.13;;
39750;SDS011;37579;51.074;17.004;2023-02-15T08:10:08;5.57;;;2.90;;
39750;SDS011;37579;51.074;17.004;2023-02-15T08:12:34;3.90;;;2.83;;
39750;SDS011;37579;51.074;17.004;2023-02-15T08:14:59;4.65;;;2.60;;
39750;SDS011;37579;51.074;17.004;2023-02-15T08:17:25;4.85;;;2.92;;
39750;SDS011;37579;51.074;17.004;2023-02-15T08:19:51;4.00;;;3.00;;
39750;SDS011;37579;51.074;17.004;2023-02-15T08:22:17;5.43;;;2.78;;
39750;SDS011;37579;51.074;17.004;2023-02-15T08:24:43;3.92;;;2.90;;
39750;SDS011;37579;51.074;17.004;2023-02-15T08:27:09;3.97;;;3.03;;
39750;SDS011;37579;51.074;17.004;2023-02-15T08:29:36;4.43;;;2.80;;
39750;SDS011;37579;51.074;17.004;2023-02-15T08:32:04;4.03;;;2.47;;
39750;SDS011;37579;51.074;17.004;2023-02-15T08:34:33;4.55;;;2.88;;
39750;SDS011;37579;51.074;17.004;2023-02-15T08:37:01;5.43;;;2.33;;
39750;SDS011;37579;51.074;17.004;2023-02-15T08:39:27;4.35;;;2.95;;
39750;SDS011;37579;51.074;17.004;2023-02-15T08:41:53;3.92;;;2.55;;
39750;SDS011;37579;51.074;17.004;2023-02-15T08:44:19;4.63;;;2.95;;
39750;SDS011;37579;51.074;17.004;2023-02-15T08:46:46;3.92;;;2.63;;
39750;SDS011;37579;51.074;17.004;2023-02-15T08:49:15;5.32;;;2.95;;
39750;SDS011;37579;51.074;17.004;2023-02-15T08:51:43;3.50;;;2.60;;
39750;SDS011;37579;51.074;17.004;2023-02-15T08:54:10;4.72;;;2.72;;
39750;SDS011;37579;51.074;17.004;2023-02-15T08:56:39;5.25;;;2.70;;
39750;SDS011;37579;51.074;17.004;2023-02-15T08:59:06;4.28;;;2.83;;
39750;SDS011;37579;51.074;17.004;2023-02-15T09:01:37;3.45;;;2.30;;
39750;SDS011;37579;51.074;17.004;2023-02-15T09:04:04;3.75;;;2.60;;
39750;SDS011;37579;51.074;17.004;2023-02-15T09:06:33;4.32;;;2.70;;
39750;SDS011;37579;51.074;17.004;2023-02-15T09:09:00;4.13;;;2.75;;
39750;SDS011;37579;51.074;17.004;2023-02-15T09:11:28;3.95;;;2.67;;
39750;SDS011;37579;51.074;17.004;2023-02-15T09:13:56;4.93;;;2.88;;
39750;SDS011;37579;51.074;17.004;2023-02-15T09:16:25;5.18;;;2.90;;
39750;SDS011;37579;51.074;17.004;2023-02-15T09:18:53;6.25;;;2.92;;
39750;SDS011;37579;51.074;17.004;2023-02-15T09:21:21;7.22;;;2.80;;
39750;SDS011;37579;51.074;17.004;2023-02-15T09:23:48;5.60;;;2.92;;
39750;SDS011;37579;51.074;17.004;2023-02-15T09:26:19;7.65;;;3.90;;
39750;SDS011;37579;51.074;17.004;2023-02-15T09:28:46;7.68;;;3.40;;
39750;SDS011;37579;51.074;17.004;2023-02-15T09:31:17;7.28;;;3.60;;
39750;SDS011;37579;51.074;17.004;2023-02-15T09:33:45;5.35;;;3.38;;
39750;SDS011;37579;51.074;17.004;2023-02-15T09:36:16;9.32;;;3.40;;
39750;SDS011;37579;51.074;17.004;2023-02-15T09:38:47;6.43;;;3.13;;
39750;SDS011;37579;51.074;17.004;2023-02-15T09:44:11;7.13;;;3.00;;
39750;SDS011;37579;51.074;17.004;2023-02-15T09:58:02;8.57;;;4.18;;
39750;SDS011;37579;51.074;17.004;2023-02-15T10:14:45;5.68;;;4.40;;
39750;SDS011;37579;51.074;17.004;2023-02-15T10:23:10;8.65;;;3.88;;
39750;SDS011;37579;51.074;17.004;2023-02-15T10:31:22;6.63;;;4.30;;
39750;SDS011;37579;51.074;17.004;2023-02-15T10:33:56;9.95;;;4.43;;
39750;SDS011;37579;51.074;17.004;2023-02-15T10:39:33;6.85;;;4.22;;
39750;SDS011;37579;51.074;17.004;2023-02-15T11:06:53;5.45;;;3.83;;
39750;SDS011;37579;51.074;17.004;2023-02-15T11:09:23;5.15;;;3.60;;
39750;SDS011;37579;51.074;17.004;2023-02-15T11:11:55;6.13;;;3.90;;
39750;SDS011;37579;51.074;17.004;2023-02-15T11:17:27;7.18;;;3.78;;
39750;SDS011;37579;51.074;17.004;2023-02-15T11:20:04;7.40;;;4.72;;
39750;SDS011;37579;51.074;17.004;2023-02-15T11:22:41;4.45;;;3.45;;
39750;SDS011;37579;51.074;17.004;2023-02-15T11:25:24;5.30;;;3.50;;
39750;SDS011;37579;51.074;17.004;2023-02-15T11:27:56;5.22;;;3.75;;
39750;SDS011;37579;51.074;17.004;2023-02-15T11:30:24;6.60;;;3.45;;
39750;SDS011;37579;51.074;17.004;2023-02-15T11:32:55;5.60;;;3.45;;
39750;SDS011;37579;51.074;17.004;2023-02-15T11:37:57;4.40;;;3.42;;
39750;SDS011;37579;51.074;17.004;2023-02-15T11:40:49;5.18;;;3.55;;
39750;SDS011;37579;51.074;17.004;2023-02-15T11:43:36;5.07;;;3.85;;
39750;SDS011;37579;51.074;17.004;2023-02-15T11:46:26;4.85;;;3.53;;
39750;SDS011;37579;51.074;17.004;2023-02-15T11:48:52;7.18;;;3.70;;
39750;SDS011;37579;51.074;17.004;2023-02-15T11:51:18;4.80;;;3.75;;
39750;SDS011;37579;51.074;17.004;2023-02-15T11:53:47;5.55;;;3.67;;
39750;SDS011;37579;51.074;17.004;2023-02-15T11:56:21;5.45;;;3.35;;
39750;SDS011;37579;51.074;17.004;2023-02-15T11:58:51;5.13;;;3.58;;
39750;SDS011;37579;51.074;17.004;2023-02-15T12:01:43;4.13;;;3.40;;
39750;SDS011;37579;51.074;17.004;2023-02-15T12:07:13;4.55;;;3.30;;
39750;SDS011;37579;51.074;17.004;2023-02-15T12:12:32;4.93;;;3.33;;
39750;SDS011;37579;51.074;17.004;2023-02-15T12:15:01;5.63;;;3.42;;
39750;SDS011;37579;51.074;17.004;2023-02-15T12:17:38;4.40;;;4.00;;
39750;SDS011;37579;51.074;17.004;2023-02-15T12:22:39;6.22;;;4.25;;
39750;SDS011;37579;51.074;17.004;2023-02-15T12:25:21;23.40;;;14.77;;
39750;SDS011;37579;51.074;17.004;2023-02-15T12:27:51;10.07;;;7.85;;
39750;SDS011;37579;51.074;17.004;2023-02-15T12:30:20;8.57;;;6.28;;
39750;SDS011;37579;51.074;17.004;2023-02-15T12:32:51;9.00;;;6.13;;
39750;SDS011;37579;51.074;17.004;2023-02-15T12:35:38;10.13;;;4.90;;
39750;SDS011;37579;51.074;17.004;2023-02-15T12:40:36;5.15;;;4.45;;
39750;SDS011;37579;51.074;17.004;2023-02-15T12:43:03;8.10;;;4.75;;
39750;SDS011;37579;51.074;17.004;2023-02-15T12:45:37;8.70;;;5.18;;
39750;SDS011;37579;51.074;17.004;2023-02-15T12:50:43;6.68;;;4.65;;
39750;SDS011;37579;51.074;17.004;2023-02-15T12:55:52;5.65;;;4.53;;
39750;SDS011;37579;51.074;17.004;2023-02-15T12:58:24;8.10;;;4.88;;
39750;SDS011;37579;51.074;17.004;2023-02-15T13:06:25;6.38;;;4.70;;
39750;SDS011;37579;51.074;17.004;2023-02-15T13:09:06;9.00;;;5.07;;
39750;SDS011;37579;51.074;17.004;2023-02-15T13:11:43;7.28;;;5.00;;
39750;SDS011;37579;51.074;17.004;2023-02-15T13:14:17;6.70;;;5.05;;
39750;SDS011;37579;51.074;17.004;2023-02-15T13:16:52;9.30;;;5.28;;
39750;SDS011;37579;51.074;17.004;2023-02-15T13:22:06;8.20;;;5.40;;
39750;SDS011;37579;51.074;17.004;2023-02-15T13:24:42;7.60;;;5.20;;
39750;SDS011;37579;51.074;17.004;2023-02-15T13:27:35;6.53;;;4.93;;
39750;SDS011;37579;51.074;17.004;2023-02-15T13:30:03;8.25;;;4.88;;
39750;SDS011;37579;51.074;17.004;2023-02-15T13:32:55;7.00;;;4.88;;
39750;SDS011;37579;51.074;17.004;2023-02-15T13:35:24;7.30;;;4.82;;
39750;SDS011;37579;51.074;17.004;2023-02-15T13:40:29;9.68;;;5.60;;
39750;SDS011;37579;51.074;17.004;2023-02-15T14:07:49;5.22;;;4.43;;
39750;SDS011;37579;51.074;17.004;2023-02-15T14:11:02;6.07;;;4.65;;
39750;SDS011;37579;51.074;17.004;2023-02-15T14:14:10;7.53;;;4.60;;
39750;SDS011;37579;51.074;17.004;2023-02-15T14:30:26;7.72;;;4.85;;
39750;SDS011;37579;51.074;17.004;2023-02-15T14:32:57;10.10;;;5.18;;
39750;SDS011;37579;51.074;17.004;2023-02-15T14:35:29;9.32;;;5.13;;
39750;SDS011;37579;51.074;17.004;2023-02-15T14:48:56;10.52;;;4.60;;
39750;SDS011;37579;51.074;17.004;2023-02-15T14:57:20;9.13;;;5.13;;
39750;SDS011;37579;51.074;17.004;2023-02-15T14:59:46;6.85;;;4.63;;
39750;SDS011;37579;51.074;17.004;2023-02-15T15:07:51;8.38;;;4.60;;
39750;SDS011;37579;51.074;17.004;2023-02-15T15:12:52;6.93;;;4.70;;
39750;SDS011;37579;51.074;17.004;2023-02-15T15:18:07;7.65;;;4.93;;
39750;SDS011;37579;51.074;17.004;2023-02-15T15:33:41;7.00;;;4.50;;
39750;SDS011;37579;51.074;17.004;2023-02-15T15:39:31;7.88;;;4.82;;
39750;SDS011;37579;51.074;17.004;2023-02-15T15:45:08;6.38;;;4.30;;
39750;SDS011;37579;51.074;17.004;2023-02-15T15:50:52;6.72;;;4.78;;
39750;SDS011;37579;51.074;17.004;2023-02-15T15:53:23;7.28;;;4.40;;
39750;SDS011;37579;51.074;17.004;2023-02-15T15:55:52;6.78;;;3.90;;
39750;SDS011;37579;51.074;17.004;2023-02-15T15:58:22;6.35;;;4.00;;
39750;SDS011;37579;51.074;17.004;2023-02-15T16:01:22;6.28;;;3.70;;
39750;SDS011;37579;51.074;17.004;2023-02-15T16:03:52;6.00;;;3.50;;
39750;SDS011;37579;51.074;17.004;2023-02-15T16:06:26;5.25;;;3.92;;
39750;SDS011;37579;51.074;17.004;2023-02-15T16:11:35;4.63;;;3.38;;
39750;SDS011;37579;51.074;17.004;2023-02-15T16:14:10;6.25;;;3.92;;
39750;SDS011;37579;51.074;17.004;2023-02-15T16:16:41;5.88;;;4.15;;
39750;SDS011;37579;51.074;17.004;2023-02-15T16:19:23;5.07;;;3.72;;
39750;SDS011;37579;51.074;17.004;2023-02-15T16:21:52;5.47;;;4.07;;
39750;SDS011;37579;51.074;17.004;2023-02-15T16:24:31;8.02;;;4.05;;
39750;SDS011;37579;51.074;17.004;2023-02-15T16:27:36;7.20;;;4.47;;
39750;SDS011;37579;51.074;17.004;2023-02-15T16:30:17;6.97;;;4.50;;
39750;SDS011;37579;51.074;17.004;2023-02-15T16:32:46;5.80;;;4.10;;
39750;SDS011;37579;51.074;17.004;2023-02-15T16:35:16;6.82;;;3.83;;
39750;SDS011;37579;51.074;17.004;2023-02-15T16:37:44;6.55;;;4.07;;
39750;SDS011;37579;51.074;17.004;2023-02-15T16:40:56;6.70;;;3.47;;
39750;SDS011;37579;51.074;17.004;2023-02-15T16:43:04;5.50;;;4.10;;
39750;SDS011;37579;51.074;17.004;2023-02-15T16:45:35;6.18;;;3.85;;
39750;SDS011;37579;51.074;17.004;2023-02-15T16:48:05;6.65;;;4.03;;
39750;SDS011;37579;51.074;17.004;2023-02-15T16:50:38;5.43;;;3.80;;
39750;SDS011;37579;51.074;17.004;2023-02-15T16:53:05;7.15;;;3.92;;
39750;SDS011;37579;51.074;17.004;2023-02-15T16:55:40;5.78;;;3.75;;
39750;SDS011;37579;51.074;17.004;2023-02-15T16:58:11;6.93;;;3.92;;
39750;SDS011;37579;51.074;17.004;2023-02-15T17:00:41;7.63;;;4.28;;
39750;SDS011;37579;51.074;17.004;2023-02-15T17:08:15;6.10;;;4.25;;
39750;SDS011;37579;51.074;17.004;2023-02-15T17:14:10;5.43;;;4.03;;
39750;SDS011;37579;51.074;17.004;2023-02-15T17:19:09;8.15;;;4.53;;
39750;SDS011;37579;51.074;17.004;2023-02-15T17:21:45;4.05;;;3.53;;
39750;SDS011;37579;51.074;17.004;2023-02-15T17:24:17;5.03;;;4.15;;
39750;SDS011;37579;51.074;17.004;2023-02-15T17:26:58;6.45;;;4.18;;
39750;SDS011;37579;51.074;17.004;2023-02-15T17:29:35;5.10;;;4.30;;
39750;SDS011;37579;51.074;17.004;2023-02-15T17:32:03;9.60;;;4.80;;
39750;SDS011;37579;51.074;17.004;2023-02-15T17:37:24;6.57;;;4.72;;
39750;SDS011;37579;51.074;17.004;2023-02-15T17:39:54;6.75;;;4.40;;
39750;SDS011;37579;51.074;17.004;2023-02-15T17:42:21;5.90;;;4.40;;
39750;SDS011;37579;51.074;17.004;2023-02-15T17:44:47;4.90;;;4.05;;
39750;SDS011;37579;51.074;17.004;2023-02-15T17:47:18;16.30;;;4.75;;
39750;SDS011;37579;51.074;17.004;2023-02-15T17:49:47;5.45;;;3.67;;
39750;SDS011;37579;51.074;17.004;2023-02-15T17:52:16;6.32;;;3.90;;
39750;SDS011;37579;51.074;17.004;2023-02-15T17:54:43;6.47;;;3.60;;
39750;SDS011;37579;51.074;17.004;2023-02-15T17:57:28;5.57;;;4.05;;
39750;SDS011;37579;51.074;17.004;2023-02-15T17:59:55;4.97;;;3.38;;
39750;SDS011;37579;51.074;17.004;2023-02-15T18:02:40;4.47;;;3.55;;
39750;SDS011;37579;51.074;17.004;2023-02-15T18:05:24;6.28;;;3.45;;
39750;SDS011;37579;51.074;17.004;2023-02-15T18:08:12;4.80;;;3.60;;
39750;SDS011;37579;51.074;17.004;2023-02-15T18:10:58;4.35;;;3.60;;
39750;SDS011;37579;51.074;17.004;2023-02-15T18:13:44;4.93;;;3.35;;
39750;SDS011;37579;51.074;17.004;2023-02-15T18:16:19;4.50;;;3.30;;
39750;SDS011;37579;51.074;17.004;2023-02-15T18:18:48;4.95;;;3.50;;
39750;SDS011;37579;51.074;17.004;2023-02-15T18:21:14;5.20;;;3.20;;
39750;SDS011;37579;51.074;17.004;2023-02-15T18:23:40;4.70;;;3.60;;
39750;SDS011;37579;51.074;17.004;2023-02-15T18:26:08;3.88;;;3.17;;
39750;SDS011;37579;51.074;17.004;2023-02-15T18:28:41;4.45;;;3.25;;
39750;SDS011;37579;51.074;17.004;2023-02-15T18:31:07;4.10;;;3.13;;
39750;SDS011;37579;51.074;17.004;2023-02-15T18:33:34;3.35;;;2.75;;
39750;SDS011;37579;51.074;17.004;2023-02-15T18:36:03;4.88;;;3.08;;
39750;SDS011;37579;51.074;17.004;2023-02-15T18:38:32;4.38;;;2.80;;
39750;SDS011;37579;51.074;17.004;2023-02-15T18:40:59;4.47;;;3.28;;
39750;SDS011;37579;51.074;17.004;2023-02-15T18:43:26;18.45;;;13.82;;
39750;SDS011;37579;51.074;17.004;2023-02-15T18:45:52;9.85;;;7.22;;
39750;SDS011;37579;51.074;17.004;2023-02-15T18:48:18;6.95;;;5.65;;
39750;SDS011;37579;51.074;17.004;2023-02-15T18:50:43;7.38;;;5.78;;